Time;durP1;ratioP1;P1;durP2;ratioP2;P2;SDS_P1;SDS_P2;PMS_P1;PMS_P2;Temp;Humidity;BMP_temperature;BMP_pressure;BME280_temperature;BME280_humidity;BME280_pressure;Samples;Min_cycle;Max_cycle;Signal;HPM_P1;HPM_P2
2023/05/20 00:01:59;;;;;;;25.17;13.27;;;;;;;-141.97;93.49;47732.44;4960173;28;20179;-84
2023/05/20 00:04:24;;;;;;;21.93;13.47;;;;;;;-141.97;94.46;47805.47;4977152;28;20170;-84
2023/05/20 00:06:50;;;;;;;20.20;13.43;;;;;;;-141.97;94.96;47588.28;4977479;28;20177;-84
2023/05/20 00:09:18;;;;;;;26.70;14.10;;;;;;;-141.97;95.04;47745.88;4977290;28;20164;-85
2023/05/20 00:11:45;;;;;;;23.20;13.93;;;;;;;-141.97;95.10;47707.44;4958915;28;20184;-85
2023/05/20 00:14:10;;;;;;;24.70;14.47;;;;;;;-141.97;95.05;47574.81;4977179;28;20172;-85
2023/05/20 00:16:35;;;;;;;23.93;14.40;;;;;;;-141.97;94.54;47551.75;4960892;28;20194;-83
2023/05/20 00:19:01;;;;;;;26.50;17.10;;;;;;;-141.97;94.21;47626.72;4978203;28;20176;-82
2023/05/20 00:21:26;;;;;;;36.60;20.67;;;;;;;-141.97;93.58;47482.56;4975907;28;20196;-83
2023/05/20 00:23:52;;;;;;;33.23;20.13;;;;;;;-141.97;92.99;47834.31;4975629;28;20191;-83
2023/05/20 00:26:18;;;;;;;30.73;18.30;;;;;;;-141.97;92.96;47580.59;4983516;28;20203;-83
2023/05/20 00:28:43;;;;;;;28.67;18.00;;;;;;;-141.97;93.20;47709.38;4973925;28;20654;-84
2023/05/20 00:31:09;;;;;;;31.03;18.13;;;;;;;-141.97;94.53;47842.00;4987158;28;20220;-84
2023/05/20 00:33:35;;;;;;;32.43;19.00;;;;;;;-141.97;94.29;47711.28;4976315;28;20226;-83
2023/05/20 00:36:00;;;;;;;33.03;19.53;;;;;;;-141.97;93.73;47847.75;4976052;28;20256;-84
2023/05/20 00:38:26;;;;;;;34.10;19.70;;;;;;;-141.97;93.59;47522.91;4976488;28;20200;-83
2023/05/20 00:40:51;;;;;;;33.87;19.87;;;;;;;-141.97;93.95;47572.91;4975634;28;20210;-85
2023/05/20 00:43:17;;;;;;;37.07;20.93;;;;;;;-141.97;93.48;47682.47;4957952;28;20208;-83
2023/05/20 00:45:42;;;;;;;38.83;22.00;;;;;;;-141.97;93.89;47574.81;4975328;28;20237;-84
2023/05/20 00:48:08;;;;;;;38.13;21.33;;;;;;;-141.97;93.66;47730.50;4975967;28;20172;-83
2023/05/20 00:50:34;;;;;;;40.87;22.13;;;;;;;-141.97;94.05;47738.19;4975248;28;20164;-84
2023/05/20 00:53:00;;;;;;;41.93;23.37;;;;;;;-141.97;94.09;47553.69;4974670;28;20161;-84
2023/05/20 00:55:26;;;;;;;46.93;26.13;;;;;;;-141.97;93.93;47749.72;4975584;28;20242;-82
2023/05/20 00:57:52;;;;;;;39.77;21.73;;;;;;;-141.97;95.00;47724.75;4978193;28;20172;-84
2023/05/20 01:00:17;;;;;;;30.27;17.20;;;;;;;-141.97;95.91;47672.84;4975215;28;20306;-84
2023/05/20 01:02:43;;;;;;;25.63;15.33;;;;;;;-141.97;96.64;47542.16;4974796;28;20196;-83
2023/05/20 01:05:08;;;;;;;25.90;14.50;;;;;;;-141.97;97.10;47822.78;4974847;28;20167;-84
2023/05/20 01:07:34;;;;;;;25.77;14.70;;;;;;;-141.97;97.72;47703.59;4975170;28;20176;-84
2023/05/20 01:10:00;;;;;;;23.37;14.27;;;;;;;-141.97;98.30;47738.19;4975007;28;20527;-84
2023/05/20 01:12:30;;;;;;;25.37;14.83;;;;;;;-141.97;98.38;47676.69;4973558;28;20207;-84
2023/05/20 01:15:04;;;;;;;26.97;14.30;;;;;;;-141.97;98.60;47761.25;4975278;28;20231;-84
2023/05/20 01:17:36;;;;;;;25.10;13.93;;;;;;;-141.97;99.08;47670.91;4972879;28;20184;-84
2023/05/20 01:20:04;;;;;;;23.60;14.57;;;;;;;-141.97;99.65;47718.97;4973574;28;20208;-84
2023/05/20 01:22:30;;;;;;;23.77;13.83;;;;;;;-141.97;100.00;47478.72;4973926;28;20262;-84
2023/05/20 01:24:56;;;;;;;25.30;14.27;;;;;;;-141.97;99.19;47747.81;4973893;28;20207;-84
2023/05/20 01:27:22;;;;;;;23.40;13.87;;;;;;;-141.97;99.30;47644.00;4972785;28;20242;-84
2023/05/20 01:29:49;;;;;;;22.30;13.33;;;;;;;-141.97;98.86;47734.34;4973450;28;20176;-84
2023/05/20 01:32:21;;;;;;;22.63;13.07;;;;;;;-141.97;98.72;47742.03;4973442;28;20711;-84
2023/05/20 01:34:49;;;;;;;23.00;13.77;;;;;;;-141.97;99.25;47726.66;4974329;28;20180;-84
2023/05/20 01:37:17;;;;;;;22.53;13.83;;;;;;;-141.97;98.84;47726.66;4974539;28;20175;-84
2023/05/20 01:39:43;;;;;;;25.90;14.10;;;;;;;-141.97;99.41;47820.84;4974377;28;20251;-84
2023/05/20 01:42:09;;;;;;;25.33;14.37;;;;;;;-141.97;99.41;47784.34;4973993;28;20700;-85
2023/05/20 01:44:35;;;;;;;22.20;13.73;;;;;;;-141.97;99.73;47657.47;4974522;28;20172;-84
2023/05/20 01:47:01;;;;;;;23.13;14.03;;;;;;;-141.97;100.00;47701.69;4973899;28;20511;-83
2023/05/20 01:49:26;;;;;;;19.90;13.03;;;;;;;-141.97;100.00;47749.72;4973900;28;20570;-83
2023/05/20 01:51:52;;;;;;;22.23;14.07;;;;;;;-141.97;100.00;47763.19;4957379;28;20235;-83
2023/05/20 01:54:17;;;;;;;23.37;14.03;;;;;;;-141.97;100.00;47720.91;4975717;28;20196;-83
2023/05/20 01:56:44;;;;;;;24.93;14.43;;;;;;;-141.97;100.00;47843.91;4975148;28;20169;-83
2023/05/20 01:59:10;;;;;;;22.63;13.43;;;;;;;-141.97;100.00;47840.06;4974728;28;20192;-84
2023/05/20 02:01:35;;;;;;;25.93;13.93;;;;;;;-141.97;100.00;47599.81;4974979;28;20236;-83
2023/05/20 02:04:01;;;;;;;23.70;14.33;;;;;;;-141.97;100.00;47595.97;4975709;28;20168;-83
2023/05/20 02:06:26;;;;;;;24.27;14.43;;;;;;;-141.97;100.00;47815.09;4975293;28;20176;-83
2023/05/20 02:08:51;;;;;;;23.07;13.67;;;;;;;-141.97;100.00;47588.28;4973251;28;20178;-84
2023/05/20 02:11:17;;;;;;;28.07;13.37;;;;;;;-141.97;100.00;47740.13;4974131;28;20211;-83
2023/05/20 02:13:42;;;;;;;24.07;14.50;;;;;;;-141.97;100.00;47730.50;4973704;28;20169;-83
2023/05/20 02:16:07;;;;;;;25.57;13.87;;;;;;;-141.97;100.00;47547.91;4974253;28;20169;-83
2023/05/20 02:18:34;;;;;;;25.57;14.27;;;;;;;-141.97;100.00;47599.81;4956538;28;20259;-83
2023/05/20 02:21:02;;;;;;;28.03;14.83;;;;;;;-141.97;100.00;47745.88;4973968;28;20204;-84
2023/05/20 02:23:28;;;;;;;23.33;14.53;;;;;;;-141.97;100.00;47692.06;4974271;28;20187;-84
2023/05/20 02:25:54;;;;;;;26.57;14.50;;;;;;;-141.97;100.00;47826.63;4973455;28;20672;-84
2023/05/20 02:28:19;;;;;;;25.60;14.13;;;;;;;-141.97;100.00;47722.81;4974033;28;20210;-83
2023/05/20 02:30:44;;;;;;;24.07;14.40;;;;;;;-141.97;100.00;47803.56;4973574;28;20198;-83
2023/05/20 02:33:11;;;;;;;23.37;13.77;;;;;;;-141.97;100.00;47695.91;4974460;28;20168;-83
2023/05/20 02:35:36;;;;;;;25.00;13.73;;;;;;;-141.97;100.00;47632.47;4973974;28;20196;-83
2023/05/20 02:38:02;;;;;;;24.37;13.83;;;;;;;-141.97;100.00;47619.03;4972749;28;20176;-83
2023/05/20 02:40:27;;;;;;;22.07;13.53;;;;;;;-141.97;100.00;47676.69;4977532;28;20230;-83
2023/05/20 02:42:52;;;;;;;24.97;13.60;;;;;;;-141.97;100.00;47726.66;4976457;28;20298;-84
2023/05/20 02:45:18;;;;;;;24.53;13.43;;;;;;;-141.97;100.00;47784.34;4977566;28;20184;-84
2023/05/20 02:47:43;;;;;;;23.80;14.00;;;;;;;-141.97;100.00;47715.13;4976790;28;20176;-85
2023/05/20 02:50:09;;;;;;;23.90;14.03;;;;;;;-141.97;100.00;47761.25;4977430;28;20204;-84
2023/05/20 02:52:35;;;;;;;20.70;12.73;;;;;;;-141.97;100.00;47730.50;4977519;28;20546;-84
2023/05/20 02:55:00;;;;;;;23.17;13.30;;;;;;;-141.97;100.00;47705.53;4959051;28;20653;-83
2023/05/20 02:57:27;;;;;;;22.33;13.33;;;;;;;-141.97;100.00;47734.34;4959137;28;20179;-83
2023/05/20 02:59:53;;;;;;;25.10;13.67;;;;;;;-141.97;100.00;47866.97;4976951;28;20211;-84
2023/05/20 03:02:18;;;;;;;20.70;13.07;;;;;;;-141.97;100.00;47815.09;4977109;28;20179;-84
2023/05/20 03:04:45;;;;;;;21.33;12.97;;;;;;;-141.97;100.00;47678.63;4976883;28;20629;-84
2023/05/20 03:07:11;;;;;;;21.83;13.33;;;;;;;-141.97;100.00;47695.91;4976730;28;20196;-84
2023/05/20 03:09:36;;;;;;;19.90;12.50;;;;;;;-141.97;100.00;47584.44;4977342;28;20239;-84
2023/05/20 03:12:02;;;;;;;21.73;13.00;;;;;;;-141.97;100.00;47657.47;4962152;28;20187;-83
2023/05/20 03:14:27;;;;;;;20.53;12.50;;;;;;;-141.97;100.00;47594.03;4977085;28;20182;-83
2023/05/20 03:16:56;;;;;;;23.00;13.10;;;;;;;-141.97;100.00;47588.28;4977088;28;20176;-84
2023/05/20 03:19:22;;;;;;;21.00;12.97;;;;;;;-141.97;100.00;47828.53;4977724;28;20164;-85
2023/05/20 03:21:49;;;;;;;21.03;12.33;;;;;;;-141.97;100.00;47801.63;4977702;28;20202;-84
2023/05/20 03:24:15;;;;;;;21.50;12.27;;;;;;;-141.97;100.00;47626.72;4977164;28;20164;-85
2023/05/20 03:26:45;;;;;;;20.13;12.17;;;;;;;-141.97;100.00;47807.41;4980292;28;20592;-85
2023/05/20 03:29:10;;;;;;;22.70;12.50;;;;;;;-141.97;100.00;47822.78;4988060;28;20168;-85
2023/05/20 03:31:36;;;;;;;27.40;14.90;;;;;;;-141.97;100.00;47630.56;4982865;28;20171;-84
2023/05/20 03:34:01;;;;;;;32.20;17.07;;;;;;;-141.97;100.00;47715.13;4976074;28;20206;-83
2023/05/20 03:36:27;;;;;;;26.47;13.87;;;;;;;-141.97;100.00;47753.56;4976539;28;20672;-84
2023/05/20 03:38:52;;;;;;;27.77;14.80;;;;;;;-141.97;100.00;47622.88;4976861;28;20527;-83
2023/05/20 03:41:18;;;;;;;25.63;14.17;;;;;;;-141.97;100.00;47855.44;4975883;28;20659;-83
2023/05/20 03:43:43;;;;;;;22.57;13.73;;;;;;;-141.97;100.00;47772.78;4975811;28;20168;-83
2023/05/20 03:46:09;;;;;;;24.57;14.33;;;;;;;-141.97;100.00;47570.97;4976475;28;20207;-85
2023/05/20 03:48:34;;;;;;;21.43;13.50;;;;;;;-141.97;100.00;47667.06;4975882;28;20236;-84
2023/05/20 03:51:00;;;;;;;25.70;13.50;;;;;;;-141.97;100.00;47559.44;4974969;28;20601;-84
2023/05/20 03:53:26;;;;;;;20.70;12.77;;;;;;;-141.97;100.00;47694.00;4975145;28;20161;-84
2023/05/20 03:55:52;;;;;;;24.37;12.53;;;;;;;-141.97;100.00;47703.59;4975564;28;20211;-84
2023/05/20 03:58:19;;;;;;;24.87;13.60;;;;;;;-141.97;100.00;47726.66;4959221;28;20696;-83
2023/05/20 04:00:46;;;;;;;21.73;13.13;;;;;;;-141.97;100.00;47718.97;4975939;28;20232;-83
2023/05/20 04:03:11;;;;;;;20.43;12.30;;;;;;;-141.97;100.00;47722.81;4975657;28;20645;-83
2023/05/20 04:05:37;;;;;;;20.73;12.23;;;;;;;-141.97;100.00;47624.78;4975372;28;20235;-84
2023/05/20 04:08:03;;;;;;;22.40;13.73;;;;;;;-141.97;100.00;47718.97;4958197;28;20184;-84
2023/05/20 04:10:31;;;;;;;21.80;14.43;;;;;;;-141.97;100.00;47690.16;4975914;28;20207;-84
2023/05/20 04:12:56;;;;;;;21.17;12.77;;;;;;;-141.97;100.00;47697.84;4975583;28;20250;-84
2023/05/20 04:15:22;;;;;;;20.90;13.53;;;;;;;-141.97;100.00;47722.81;4957595;28;20180;-83
2023/05/20 04:17:49;;;;;;;23.57;12.77;;;;;;;-141.97;100.00;47830.47;4975573;28;20164;-83
2023/05/20 04:20:14;;;;;;;23.07;12.87;;;;;;;-141.97;100.00;47738.19;4974136;28;20763;-84
2023/05/20 04:22:40;;;;;;;24.50;12.70;;;;;;;-141.97;100.00;47707.44;4975458;28;20193;-83
2023/05/20 04:25:06;;;;;;;21.60;13.33;;;;;;;-141.97;100.00;47722.81;4975238;28;20578;-83
2023/05/20 04:27:36;;;;;;;22.10;12.57;;;;;;;-141.97;100.00;47759.34;4975336;28;20579;-84
2023/05/20 04:30:04;;;;;;;24.13;12.63;;;;;;;-141.97;100.00;47865.06;4958017;28;20590;-84
2023/05/20 04:32:29;;;;;;;22.03;12.53;;;;;;;-141.97;100.00;47851.59;4975316;28;20164;-84
2023/05/20 04:34:56;;;;;;;23.27;12.90;;;;;;;-141.97;100.00;47776.63;4975311;28;20176;-84
2023/05/20 04:37:21;;;;;;;19.87;11.80;;;;;;;-141.97;100.00;47832.38;4975195;28;20211;-84
2023/05/20 04:39:48;;;;;;;19.80;12.10;;;;;;;-141.97;100.00;47818.94;4975036;28;20645;-83
2023/05/20 04:42:17;;;;;;;23.33;12.80;;;;;;;-141.97;100.00;47676.69;4974869;28;20246;-83
2023/05/20 04:44:44;;;;;;;21.90;12.63;;;;;;;-141.97;100.00;47657.47;4975429;28;20241;-83
2023/05/20 04:47:10;;;;;;;18.63;11.53;;;;;;;-141.97;100.00;47711.28;4975218;28;20172;-84
2023/05/20 04:49:36;;;;;;;26.37;13.03;;;;;;;-141.97;100.00;47615.19;4975303;28;20538;-85
2023/05/20 04:52:03;;;;;;;20.30;12.13;;;;;;;-141.97;100.00;47749.72;4974833;28;20258;-85
2023/05/20 04:54:29;;;;;;;20.20;12.30;;;;;;;-141.97;100.00;47880.44;4974375;28;20176;-84
2023/05/20 04:56:55;;;;;;;19.67;12.67;;;;;;;-141.97;100.00;47522.91;4957405;28;20206;-84
2023/05/20 04:59:21;;;;;;;19.23;12.57;;;;;;;-141.97;100.00;47547.91;4974868;28;20637;-84
2023/05/20 05:01:46;;;;;;;20.43;12.70;;;;;;;-141.97;100.00;47672.84;4974869;28;20228;-83
2023/05/20 05:04:11;;;;;;;21.03;12.73;;;;;;;-141.97;100.00;47690.16;4974487;28;20168;-84
2023/05/20 05:06:37;;;;;;;20.57;13.53;;;;;;;-141.97;100.00;47738.19;4975884;28;20165;-84
2023/05/20 05:09:03;;;;;;;22.37;12.50;;;;;;;-141.97;100.00;47620.94;4973476;28;20184;-83
2023/05/20 05:11:29;;;;;;;18.20;12.23;;;;;;;-141.97;83.75;47619.03;4974838;28;20156;-83
2023/05/20 05:13:55;;;;;;;20.20;12.07;;;;;;;-141.97;79.96;47511.38;4974866;28;20187;-83
2023/05/20 05:16:20;;;;;;;19.37;12.40;;;;;;;-141.97;80.62;47688.22;4975460;28;20548;-84
2023/05/20 05:18:45;;;;;;;18.20;11.43;;;;;;;-141.97;80.13;47678.63;4991313;28;20188;-83
2023/05/20 05:21:11;;;;;;;17.27;11.57;;;;;;;-141.97;77.48;47761.25;4993626;28;21441;-83
2023/05/20 05:23:36;;;;;;;20.40;11.53;;;;;;;-141.97;76.69;47834.31;4991702;28;20183;-84
2023/05/20 05:26:02;;;;;;;18.20;11.57;;;;;;;-141.97;74.98;47784.34;4977623;28;20640;-84
2023/05/20 05:28:27;;;;;;;18.90;12.50;;;;;;;-141.97;73.88;47526.75;4976157;28;20649;-85
2023/05/20 05:30:55;;;;;;;22.20;12.90;;;;;;;-141.97;74.19;47734.34;4974899;28;20183;-84
2023/05/20 05:33:21;;;;;;;21.43;13.17;;;;;;;-141.97;73.89;47715.13;4974611;28;20176;-84
2023/05/20 05:35:46;;;;;;;19.53;12.00;;;;;;;-141.97;75.10;47680.53;4957819;28;20168;-85
2023/05/20 05:38:11;;;;;;;18.67;12.13;;;;;;;-141.97;73.70;47834.31;4975182;28;20169;-85
2023/05/20 05:40:37;;;;;;;27.47;14.43;;;;;;;-141.97;72.77;47622.88;4975386;28;20210;-85
2023/05/20 05:43:03;;;;;;;22.90;14.43;;;;;;;-141.97;71.23;47695.91;4977929;28;20179;-84
2023/05/20 05:45:28;;;;;;;22.40;14.40;;;;;;;-141.97;71.35;47638.25;4983623;28;20172;-84
2023/05/20 05:47:53;;;;;;;27.43;13.47;;;;;;;-141.97;70.34;47659.38;4976576;28;20187;-87
2023/05/20 05:50:19;;;;;;;39.43;28.03;;;;;;;-141.97;69.49;47619.03;4976586;28;20271;-86
2023/05/20 05:52:45;;;;;;;118.30;80.70;;;;;;;-141.97;68.19;47845.84;4976068;28;20310;-86
2023/05/20 05:55:11;;;;;;;22.30;14.10;;;;;;;-141.97;68.65;47496.00;4975582;28;20622;-89
2023/05/20 05:57:36;;;;;;;20.37;13.33;;;;;;;-141.97;70.07;47697.84;4958922;28;20183;-86
2023/05/20 06:00:03;;;;;;;20.20;13.07;;;;;;;-141.97;71.02;47826.63;4976033;28;20625;-88
2023/05/20 06:02:29;;;;;;;18.53;12.73;;;;;;;-141.97;69.55;47492.16;4957999;28;20654;-87
2023/05/20 06:04:54;;;;;;;18.17;11.73;;;;;;;-141.97;68.21;47515.22;4974645;28;20176;-87
2023/05/20 06:07:19;;;;;;;25.77;15.57;;;;;;;-141.97;67.82;47542.16;4974489;28;20180;-87
2023/05/20 06:09:45;;;;;;;21.17;12.50;;;;;;;-141.97;66.97;47799.72;4959272;28;20187;-87
2023/05/20 06:12:11;;;;;;;18.13;10.13;;;;;;;-141.97;65.73;47772.78;4976489;28;20196;-87
2023/05/20 06:14:36;;;;;;;16.30;10.93;;;;;;;-141.97;67.48;47738.19;4980993;28;20184;-87
2023/05/20 06:17:02;;;;;;;20.50;11.40;;;;;;;-141.97;67.15;47707.44;4962323;28;20211;-87
2023/05/20 06:19:28;;;;;;;15.50;10.80;;;;;;;-141.97;67.12;47563.28;4980790;28;20175;-88
2023/05/20 06:21:55;;;;;;;15.67;11.20;;;;;;;-141.97;66.41;47793.94;4980177;28;20204;-88
2023/05/20 06:24:20;;;;;;;16.83;10.63;;;;;;;-141.97;65.00;47807.41;4978726;28;20168;-87
2023/05/20 06:26:48;;;;;;;15.43;10.03;;;;;;;-141.97;64.83;47651.69;4978046;28;20194;-87
2023/05/20 06:29:14;;;;;;;16.07;10.63;;;;;;;-141.97;64.12;47845.84;4978257;28;20176;-87
2023/05/20 06:31:39;;;;;;;18.03;10.63;;;;;;;-141.97;62.96;47803.56;4985947;28;20230;-87
2023/05/20 06:34:05;;;;;;;17.93;9.80;;;;;;;-141.97;62.17;47588.28;4971986;28;20184;-88
2023/05/20 06:36:30;;;;;;;15.27;10.50;;;;;;;-141.97;61.04;47665.16;4990818;28;20197;-88
2023/05/20 06:38:55;;;;;;;17.03;10.30;;;;;;;-141.97;59.23;47705.53;4983865;28;20180;-87
2023/05/20 06:41:21;;;;;;;13.63;9.63;;;;;;;-141.97;59.42;47665.16;4979421;28;20195;-87
2023/05/20 06:43:47;;;;;;;18.00;11.10;;;;;;;-141.97;58.13;47592.13;4962447;28;20581;-87
2023/05/20 06:46:12;;;;;;;17.00;10.63;;;;;;;-141.97;57.40;47669.00;4980241;28;20172;-88
2023/05/20 06:48:38;;;;;;;13.90;9.13;;;;;;;-141.97;56.71;47509.47;4963099;28;20180;-89
2023/05/20 06:51:08;;;;;;;16.90;9.40;;;;;;;-141.97;56.65;47626.72;4980551;28;20168;-88
2023/05/20 06:53:34;;;;;;;17.40;9.37;;;;;;;-141.97;56.48;47499.84;4963916;28;20169;-88
2023/05/20 06:55:59;;;;;;;14.53;8.90;;;;;;;-141.97;55.66;47546.00;4963580;28;20565;-87
2023/05/20 06:58:25;;;;;;;11.50;8.37;;;;;;;-141.97;54.93;47792.03;4963369;28;20180;-87
2023/05/20 07:00:50;;;;;;;15.00;8.73;;;;;;;-141.97;54.76;47622.88;4963755;28;20304;-88
2023/05/20 07:03:16;;;;;;;12.73;8.60;;;;;;;-141.97;55.09;47682.47;4981208;28;20172;-87
2023/05/20 07:05:41;;;;;;;14.13;9.50;;;;;;;-141.97;53.96;47634.41;4963705;28;20172;-88
2023/05/20 07:08:07;;;;;;;14.37;9.53;;;;;;;-141.97;52.45;47642.09;4962743;28;20172;-87
2023/05/20 07:10:33;;;;;;;15.10;9.80;;;;;;;-141.97;52.01;47707.44;4979332;28;20235;-87
2023/05/20 07:12:58;;;;;;;13.87;9.63;;;;;;;-141.97;51.64;47824.69;4977651;28;20179;-87
2023/05/20 07:15:24;;;;;;;16.30;10.60;;;;;;;-141.97;51.35;47784.34;4978931;28;20183;-87
2023/05/20 07:17:49;;;;;;;14.47;9.57;;;;;;;-141.97;50.90;47530.59;4978516;28;20168;-86
2023/05/20 07:20:15;;;;;;;14.97;9.10;;;;;;;-141.97;50.75;47605.56;4978949;28;20196;-88
2023/05/20 07:22:41;;;;;;;11.77;8.70;;;;;;;-141.97;49.54;47715.13;4978571;28;20187;-88
2023/05/20 07:25:07;;;;;;;15.03;10.33;;;;;;;-141.97;50.11;47619.03;4979484;28;20172;-88
2023/05/20 07:27:32;;;;;;;13.93;9.00;;;;;;;-141.97;49.33;47768.94;4978860;28;20161;-86
2023/05/20 07:29:58;;;;;;;13.23;10.10;;;;;;;-141.97;49.17;47484.47;4962796;28;20176;-87
2023/05/20 07:32:23;;;;;;;20.23;12.10;;;;;;;-141.97;48.64;47542.16;4979282;28;20172;-88
2023/05/20 07:34:48;;;;;;;12.80;9.40;;;;;;;-141.97;47.81;47628.63;4977031;28;20172;-88
2023/05/20 07:37:16;;;;;;;10.87;8.20;;;;;;;-141.97;47.17;47588.28;4989626;28;20192;-91
2023/05/20 07:42:11;;;;;;;9.90;8.10;;;;;;;-141.97;46.26;47547.91;4988979;23;20258;-87
2023/05/20 07:44:36;;;;;;;11.77;9.00;;;;;;;-141.97;46.37;47601.72;4978095;28;20692;-87
2023/05/20 07:47:02;;;;;;;13.10;9.10;;;;;;;-141.97;45.31;47588.28;4978424;28;20586;-87
2023/05/20 07:49:27;;;;;;;13.30;8.70;;;;;;;-141.97;45.05;47701.69;4961706;28;20605;-87
2023/05/20 07:51:53;;;;;;;10.57;7.63;;;;;;;-141.97;41.44;47346.09;4960906;28;20310;-88
2023/05/20 07:54:18;;;;;;;13.60;9.20;;;;;;;-141.97;43.68;47611.34;4976615;28;20188;-86
2023/05/20 07:56:44;;;;;;;11.30;8.33;;;;;;;-141.97;44.05;47644.00;4977203;28;20168;-87
2023/05/20 07:59:09;;;;;;;11.77;8.30;;;;;;;-141.97;42.96;47392.22;4975611;28;20187;-88
2023/05/20 08:01:35;;;;;;;11.90;8.35;;;;;;;-141.97;41.79;47348.03;4975897;28;20188;-86
2023/05/20 08:04:00;;;;;;;14.52;8.68;;;;;;;-141.97;41.16;47549.84;4976007;28;20209;-87
2023/05/20 08:06:26;;;;;;;11.75;8.77;;;;;;;-141.97;41.51;47697.84;4959427;28;20566;-87
2023/05/20 08:08:55;;;;;;;13.85;8.80;;;;;;;-141.97;42.08;47472.94;4977408;28;20219;-87
2023/05/20 08:11:21;;;;;;;14.80;8.93;;;;;;;-141.97;41.59;47361.47;4977149;28;20307;-87
2023/05/20 08:13:47;;;;;;;12.30;8.70;;;;;;;-141.97;41.93;47726.66;4976862;28;20584;-87
2023/05/20 08:16:12;;;;;;;15.02;8.98;;;;;;;-141.97;41.21;47740.13;4977695;28;20175;-88
2023/05/20 08:18:38;;;;;;;13.63;10.30;;;;;;;-141.97;41.65;47303.81;4959454;28;20173;-88
2023/05/20 08:21:06;;;;;;;12.60;9.48;;;;;;;-141.97;41.88;47526.75;4979125;28;20342;-88
2023/05/20 08:23:33;;;;;;;11.65;8.52;;;;;;;-141.97;41.19;47715.13;4962034;28;20168;-87
2023/05/20 08:26:01;;;;;;;12.93;8.45;;;;;;;-141.97;41.83;47449.88;4960731;28;20180;-86
2023/05/20 08:28:29;;;;;;;13.60;8.85;;;;;;;-141.97;41.20;47582.50;4968015;28;20175;-86
2023/05/20 08:30:55;;;;;;;12.60;9.82;;;;;;;-141.97;40.00;47534.44;4987216;28;20227;-88
2023/05/20 08:33:24;;;;;;;13.80;8.95;;;;;;;-141.97;39.41;47563.28;4963276;28;20169;-88
2023/05/20 08:35:49;;;;;;;14.13;9.35;;;;;;;-141.97;39.66;47728.59;4979196;28;20167;-86
2023/05/20 08:38:14;;;;;;;13.98;8.40;;;;;;;-141.97;39.17;47413.38;4978081;28;20170;-88
2023/05/20 08:40:40;;;;;;;12.88;8.60;;;;;;;-141.97;39.44;47405.69;4961296;28;20568;-87
2023/05/20 08:43:05;;;;;;;12.82;8.63;;;;;;;-141.97;38.56;47311.50;4961031;28;20247;-87
2023/05/20 08:45:33;;;;;;;11.70;8.57;;;;;;;-141.97;38.85;47449.88;4960122;28;20194;-88
2023/05/20 08:48:00;;;;;;;12.73;8.98;;;;;;;-141.97;38.78;47544.06;4976624;28;20298;-87
2023/05/20 08:50:25;;;;;;;12.82;8.55;;;;;;;-141.97;39.31;47742.03;4976873;28;20305;-88
2023/05/20 08:52:51;;;;;;;11.07;8.07;;;;;;;-141.97;39.46;47784.34;4975621;28;20206;-87
2023/05/20 08:55:21;;;;;;;10.35;8.45;;;;;;;-141.97;38.19;47632.47;4976167;28;20581;-87
2023/05/20 08:57:49;;;;;;;13.02;9.77;;;;;;;-141.97;38.33;47772.78;4977159;28;20185;-88
2023/05/20 09:00:15;;;;;;;13.18;9.35;;;;;;;-141.97;38.73;47530.59;4977009;28;20286;-87
2023/05/20 09:02:42;;;;;;;11.50;8.38;;;;;;;-141.97;38.70;47751.66;4976377;28;20171;-88
2023/05/20 09:05:09;;;;;;;12.57;9.02;;;;;;;-141.97;39.18;47565.22;4977006;28;20171;-88
2023/05/20 09:07:35;;;;;;;12.30;8.50;;;;;;;-141.97;39.56;47582.50;4976786;28;20190;-87
2023/05/20 09:10:01;;;;;;;11.43;9.18;;;;;;;-141.97;38.36;47599.81;4974468;28;20171;-88
2023/05/20 09:12:26;;;;;;;12.38;8.55;;;;;;;-141.97;37.67;47649.78;4977238;28;20168;-88
2023/05/20 09:14:52;;;;;;;10.40;8.63;;;;;;;-141.97;38.35;47496.00;4976745;28;20682;-87
2023/05/20 09:17:17;;;;;;;14.60;9.02;;;;;;;-141.97;37.67;47419.13;4976099;28;20752;-87
2023/05/20 09:19:43;;;;;;;14.52;8.35;;;;;;;-141.97;37.69;47365.31;4973995;28;20174;-87
2023/05/20 09:22:08;;;;;;;9.63;7.90;;;;;;;-141.97;38.51;47751.66;4978774;28;20289;-88
2023/05/20 09:24:34;;;;;;;11.77;8.32;;;;;;;-141.97;39.61;47444.13;4979870;28;20171;-87
2023/05/20 09:26:59;;;;;;;14.98;8.48;;;;;;;-141.97;38.80;47705.53;4977652;28;20171;-87
2023/05/20 09:29:25;;;;;;;8.95;7.47;;;;;;;-141.97;37.63;47503.69;4975963;28;20176;-89
2023/05/20 09:31:52;;;;;;;8.88;7.70;;;;;;;-141.97;37.75;47509.47;4975028;28;20258;-87
2023/05/20 09:34:19;;;;;;;10.68;8.07;;;;;;;-141.97;38.70;47530.59;4975318;28;20592;-88
2023/05/20 09:36:49;;;;;;;9.32;7.32;;;;;;;-141.97;39.68;47451.81;4977767;28;20172;-87
2023/05/20 09:39:18;;;;;;;11.68;8.10;;;;;;;-141.97;39.53;47567.13;4980379;28;20189;-86
2023/05/20 09:42:04;;;;;;;10.95;7.60;;;;;;;-141.97;40.52;47582.50;4994515;28;20205;-86
2023/05/20 09:44:31;;;;;;;9.02;7.53;;;;;;;-141.97;41.29;47569.06;4982777;28;20399;-87
2023/05/20 09:46:58;;;;;;;11.15;8.23;;;;;;;-141.97;40.30;47732.44;4977697;28;20171;-86
2023/05/20 09:49:25;;;;;;;11.35;7.97;;;;;;;-141.97;38.58;47534.44;4978032;28;20170;-85
2023/05/20 09:51:57;;;;;;;9.45;7.97;;;;;;;-141.97;38.20;47521.00;4987217;28;20166;-87
2023/05/20 09:54:28;;;;;;;13.55;8.45;;;;;;;-141.97;38.88;47396.06;4948305;28;20191;-88
2023/05/20 09:56:58;;;;;;;10.98;8.10;;;;;;;-141.97;38.99;47403.75;4975568;28;20178;-87
2023/05/20 09:59:26;;;;;;;10.18;7.72;;;;;;;-141.97;38.68;47378.78;4977724;28;20168;-85
2023/05/20 10:01:51;;;;;;;9.85;7.57;;;;;;;-141.97;38.53;47603.66;4979147;28;20698;-87
2023/05/20 10:04:19;;;;;;;9.73;7.35;;;;;;;-141.97;39.21;47424.91;4977651;28;20172;-86
2023/05/20 10:07:16;;;;;;;10.27;7.53;;;;;;;-141.97;41.01;47536.38;4976980;28;20182;-88
2023/05/20 10:09:48;;;;;;;10.95;7.60;;;;;;;-141.97;41.37;47561.38;4975421;28;20258;-86
2023/05/20 10:12:23;;;;;;;9.68;7.20;;;;;;;-141.97;42.28;47576.75;4974129;28;20265;-87
2023/05/20 10:14:55;;;;;;;9.93;7.60;;;;;;;-141.97;43.10;47607.50;4975578;28;20177;-88
2023/05/20 10:17:57;;;;;;;11.55;7.90;;;;;;;-141.97;43.50;47584.44;4977100;28;20566;-86
2023/05/20 10:20:22;;;;;;;10.35;7.78;;;;;;;-141.97;43.79;47784.34;4918407;29;20215;-88
2023/05/20 10:22:56;;;;;;;12.35;7.93;;;;;;;-141.97;44.13;47536.38;4934703;29;20195;-88
2023/05/20 10:25:28;;;;;;;10.02;8.10;;;;;;;-141.97;44.48;47640.16;4894008;29;20193;-88
2023/05/20 10:28:06;;;;;;;9.93;7.75;;;;;;;-141.97;43.71;47595.97;4916913;29;20219;-86
2023/05/20 10:30:32;;;;;;;11.98;7.80;;;;;;;-141.97;42.10;47694.00;4921643;29;20187;-88
2023/05/20 10:33:03;;;;;;;10.02;7.68;;;;;;;-141.97;40.21;47536.38;4923207;29;20210;-87
2023/05/20 10:35:30;;;;;;;12.68;7.68;;;;;;;-141.97;40.28;47603.66;4901669;29;20193;-87
2023/05/20 10:38:16;;;;;;;12.93;7.95;;;;;;;-141.97;39.46;47559.44;4920894;29;20197;-87
2023/05/20 10:40:47;;;;;;;12.75;7.55;;;;;;;-141.97;39.31;47743.97;4910976;29;20219;-89
2023/05/20 10:43:14;;;;;;;15.32;8.30;;;;;;;-141.97;39.36;47457.56;4912341;29;20244;-87
2023/05/20 10:45:50;;;;;;;11.38;7.63;;;;;;;-141.97;39.27;47563.28;4933632;28;20698;-88
2023/05/20 10:48:34;;;;;;;9.80;7.53;;;;;;;-141.97;39.57;47499.84;4920927;29;20195;-88
2023/05/20 10:51:05;;;;;;;9.82;6.38;;;;;;;-141.97;39.64;47759.34;4899140;29;20192;-87
2023/05/20 10:53:41;;;;;;;9.45;6.13;;;;;;;-141.97;39.97;47563.28;4916582;29;20207;-87
2023/05/20 10:56:17;;;;;;;14.52;7.15;;;;;;;-141.97;40.96;47503.69;4901833;29;20650;-87
2023/05/20 10:58:43;;;;;;;11.40;7.40;;;;;;;-141.97;41.95;47726.66;4939344;29;20276;-87
2023/05/20 11:01:09;;;;;;;10.82;7.20;;;;;;;-141.97;42.08;47557.53;4954697;28;20264;-89
2023/05/20 11:03:37;;;;;;;12.13;7.50;;;;;;;-141.97;41.88;47532.53;4963861;28;20185;-87